sensor_id;sensor_type;location;lat;lon;timestamp;pressure;altitude;pressure_sealevel;temperature;humidity
59757;BME280;45631;51.962;5.974;2023-04-28T00:00:06;101261.41;;;8.88;81.98
59757;BME280;45631;51.962;5.974;2023-04-28T00:02:35;101249.47;;;8.83;82.94
59757;BME280;45631;51.962;5.974;2023-04-28T00:05:05;101249.00;;;8.92;84.37
59757;BME280;45631;51.962;5.974;2023-04-28T00:07:33;101247.38;;;8.89;82.66
59757;BME280;45631;51.962;5.974;2023-04-28T00:10:05;101232.91;;;8.82;83.71
59757;BME280;45631;51.962;5.974;2023-04-28T00:12:33;101239.06;;;8.81;83.42
59757;BME280;45631;51.962;5.974;2023-04-28T00:15:02;101235.19;;;8.88;82.53
59757;BME280;45631;51.962;5.974;2023-04-28T00:17:30;101227.78;;;8.79;83.74
59757;BME280;45631;51.962;5.974;2023-04-28T00:20:00;101233.28;;;8.74;84.91
59757;BME280;45631;51.962;5.974;2023-04-28T00:22:30;101237.75;;;8.72;83.87
59757;BME280;45631;51.962;5.974;2023-04-28T00:24:58;101237.19;;;8.66;84.02
59757;BME280;45631;51.962;5.974;2023-04-28T00:27:26;101231.97;;;8.66;83.70
59757;BME280;45631;51.962;5.974;2023-04-28T00:29:54;101211.94;;;8.65;83.58
59757;BME280;45631;51.962;5.974;2023-04-28T00:32:22;101213.69;;;8.64;83.62
59757;BME280;45631;51.962;5.974;2023-04-28T00:34:51;101225.25;;;8.60;84.11
59757;BME280;45631;51.962;5.974;2023-04-28T00:37:19;101216.31;;;8.64;84.44
59757;BME280;45631;51.962;5.974;2023-04-28T00:39:53;101209.78;;;8.55;85.18
59757;BME280;45631;51.962;5.974;2023-04-28T00:42:22;101214.78;;;8.60;85.03
59757;BME280;45631;51.962;5.974;2023-04-28T00:44:51;101206.53;;;8.50;84.61
59757;BME280;45631;51.962;5.974;2023-04-28T00:47:19;101203.81;;;8.52;85.85
59757;BME280;45631;51.962;5.974;2023-04-28T00:49:49;101202.06;;;8.52;85.10
59757;BME280;45631;51.962;5.974;2023-04-28T00:52:17;101198.84;;;8.47;85.22
59757;BME280;45631;51.962;5.974;2023-04-28T00:54:47;101192.50;;;8.51;85.20
59757;BME280;45631;51.962;5.974;2023-04-28T00:57:16;101179.31;;;8.53;85.72
59757;BME280;45631;51.962;5.974;2023-04-28T00:59:44;101173.16;;;8.54;85.32
59757;BME280;45631;51.962;5.974;2023-04-28T01:02:12;101165.38;;;8.52;84.99
59757;BME280;45631;51.962;5.974;2023-04-28T01:04:44;101164.88;;;8.44;86.62
59757;BME280;45631;51.962;5.974;2023-04-28T01:07:12;101152.78;;;8.41;86.09
59757;BME280;45631;51.962;5.974;2023-04-28T01:09:40;101156.56;;;8.36;86.78
59757;BME280;45631;51.962;5.974;2023-04-28T01:12:11;101152.00;;;8.39;87.71
59757;BME280;45631;51.962;5.974;2023-04-28T01:14:39;101149.75;;;8.32;87.39
59757;BME280;45631;51.962;5.974;2023-04-28T01:17:10;101147.47;;;8.25;89.92
59757;BME280;45631;51.962;5.974;2023-04-28T01:19:38;101157.16;;;8.23;92.01
59757;BME280;45631;51.962;5.974;2023-04-28T01:22:06;101156.06;;;8.27;93.36
59757;BME280;45631;51.962;5.974;2023-04-28T01:24:37;101159.47;;;8.29;94.71
59757;BME280;45631;51.962;5.974;2023-04-28T01:27:05;101159.56;;;8.28;96.88
59757;BME280;45631;51.962;5.974;2023-04-28T01:29:33;101162.94;;;8.30;100.00
59757;BME280;45631;51.962;5.974;2023-04-28T01:32:02;101161.28;;;8.29;100.00
59757;BME280;45631;51.962;5.974;2023-04-28T01:34:30;101161.66;;;8.21;100.00
59757;BME280;45631;51.962;5.974;2023-04-28T01:36:58;101163.63;;;8.16;100.00
59757;BME280;45631;51.962;5.974;2023-04-28T01:39:26;101156.84;;;8.12;100.00
59757;BME280;45631;51.962;5.974;2023-04-28T01:41:56;101160.31;;;8.12;100.00
59757;BME280;45631;51.962;5.974;2023-04-28T01:44:24;101156.16;;;8.08;100.00
59757;BME280;45631;51.962;5.974;2023-04-28T01:46:52;101148.84;;;7.98;100.00
59757;BME280;45631;51.962;5.974;2023-04-28T01:49:20;101138.38;;;7.98;100.00
59757;BME280;45631;51.962;5.974;2023-04-28T01:51:49;101141.91;;;7.97;100.00
59757;BME280;45631;51.962;5.974;2023-04-28T01:54:17;101145.59;;;7.92;100.00
59757;BME280;45631;51.962;5.974;2023-04-28T01:56:45;101144.97;;;7.87;100.00
59757;BME280;45631;51.962;5.974;2023-04-28T01:59:15;101144.16;;;7.87;100.00
59757;BME280;45631;51.962;5.974;2023-04-28T02:01:44;101142.59;;;7.83;100.00
59757;BME280;45631;51.962;5.974;2023-04-28T02:04:12;101141.53;;;7.87;100.00
59757;BME280;45631;51.962;5.974;2023-04-28T02:06:41;101132.13;;;7.83;100.00
59757;BME280;45631;51.962;5.974;2023-04-28T02:09:12;101131.72;;;7.90;100.00
59757;BME280;45631;51.962;5.974;2023-04-28T02:11:40;101124.28;;;7.83;100.00
59757;BME280;45631;51.962;5.974;2023-04-28T02:14:08;101117.69;;;7.74;100.00
59757;BME280;45631;51.962;5.974;2023-04-28T02:16:37;101115.88;;;7.76;100.00
59757;BME280;45631;51.962;5.974;2023-04-28T02:19:05;101123.47;;;7.81;100.00
59757;BME280;45631;51.962;5.974;2023-04-28T02:21:34;101122.78;;;7.77;100.00
59757;BME280;45631;51.962;5.974;2023-04-28T02:24:02;101114.16;;;7.75;100.00
59757;BME280;45631;51.962;5.974;2023-04-28T02:26:33;101117.41;;;7.80;100.00
59757;BME280;45631;51.962;5.974;2023-04-28T02:29:02;101112.09;;;7.82;100.00
59757;BME280;45631;51.962;5.974;2023-04-28T02:31:30;101109.84;;;7.74;100.00
59757;BME280;45631;51.962;5.974;2023-04-28T02:34:02;101108.22;;;7.71;100.00
59757;BME280;45631;51.962;5.974;2023-04-28T02:36:30;101103.97;;;7.69;100.00
59757;BME280;45631;51.962;5.974;2023-04-28T02:38:58;101099.69;;;7.68;100.00
59757;BME280;45631;51.962;5.974;2023-04-28T02:41:27;101089.25;;;7.66;100.00
59757;BME280;45631;51.962;5.974;2023-04-28T02:43:56;101099.06;;;7.63;100.00
59757;BME280;45631;51.962;5.974;2023-04-28T02:46:27;101096.28;;;7.66;100.00
59757;BME280;45631;51.962;5.974;2023-04-28T02:48:55;101092.59;;;7.70;100.00
59757;BME280;45631;51.962;5.974;2023-04-28T02:51:24;101087.66;;;7.64;100.00
59757;BME280;45631;51.962;5.974;2023-04-28T02:53:52;101084.88;;;7.67;100.00
59757;BME280;45631;51.962;5.974;2023-04-28T02:56:20;101073.72;;;7.63;100.00
59757;BME280;45631;51.962;5.974;2023-04-28T02:58:48;101073.78;;;7.61;100.00
59757;BME280;45631;51.962;5.974;2023-04-28T03:01:16;101071.16;;;7.61;100.00
59757;BME280;45631;51.962;5.974;2023-04-28T03:03:45;101058.91;;;7.62;100.00
59757;BME280;45631;51.962;5.974;2023-04-28T03:06:13;101056.00;;;7.68;100.00
59757;BME280;45631;51.962;5.974;2023-04-28T03:08:42;101038.84;;;7.63;100.00
59757;BME280;45631;51.962;5.974;2023-04-28T03:11:10;101042.22;;;7.65;100.00
59757;BME280;45631;51.962;5.974;2023-04-28T03:13:38;101043.16;;;7.64;100.00
59757;BME280;45631;51.962;5.974;2023-04-28T03:16:07;101043.38;;;7.59;100.00
59757;BME280;45631;51.962;5.974;2023-04-28T03:18:35;101039.00;;;7.59;100.00
59757;BME280;45631;51.962;5.974;2023-04-28T03:21:03;101033.78;;;7.59;100.00
59757;BME280;45631;51.962;5.974;2023-04-28T03:23:31;101029.63;;;7.55;100.00
59757;BME280;45631;51.962;5.974;2023-04-28T03:26:01;101020.97;;;7.53;100.00
59757;BME280;45631;51.962;5.974;2023-04-28T03:28:29;101028.34;;;7.45;100.00
59757;BME280;45631;51.962;5.974;2023-04-28T03:30:57;101022.22;;;7.46;100.00
59757;BME280;45631;51.962;5.974;2023-04-28T03:33:25;101021.88;;;7.52;100.00
59757;BME280;45631;51.962;5.974;2023-04-28T03:35:53;101014.59;;;7.59;100.00
59757;BME280;45631;51.962;5.974;2023-04-28T03:38:21;101015.91;;;7.50;100.00
59757;BME280;45631;51.962;5.974;2023-04-28T03:40:50;101007.97;;;7.52;100.00
59757;BME280;45631;51.962;5.974;2023-04-28T03:43:19;101012.38;;;7.51;100.00
59757;BME280;45631;51.962;5.974;2023-04-28T03:45:47;101011.28;;;7.55;100.00
59757;BME280;45631;51.962;5.974;2023-04-28T03:48:16;101012.38;;;7.51;100.00
59757;BME280;45631;51.962;5.974;2023-04-28T03:50:44;101014.97;;;7.51;100.00
59757;BME280;45631;51.962;5.974;2023-04-28T03:53:12;101017.28;;;7.57;100.00
59757;BME280;45631;51.962;5.974;2023-04-28T03:55:40;101016.72;;;7.51;100.00
59757;BME280;45631;51.962;5.974;2023-04-28T03:58:08;101013.91;;;7.55;100.00
59757;BME280;45631;51.962;5.974;2023-04-28T04:00:37;101012.22;;;7.54;100.00
59757;BME280;45631;51.962;5.974;2023-04-28T04:03:05;101006.09;;;7.54;100.00
59757;BME280;45631;51.962;5.974;2023-04-28T04:05:34;100998.34;;;7.52;100.00
59757;BME280;45631;51.962;5.974;2023-04-28T04:08:02;100994.88;;;7.52;100.00
59757;BME280;45631;51.962;5.974;2023-04-28T04:10:33;100999.19;;;7.53;100.00
59757;BME280;45631;51.962;5.974;2023-04-28T04:13:01;100998.34;;;7.52;100.00
59757;BME280;45631;51.962;5.974;2023-04-28T04:15:29;100999.56;;;7.45;100.00
59757;BME280;45631;51.962;5.974;2023-04-28T04:17:59;100993.50;;;7.44;100.00
59757;BME280;45631;51.962;5.974;2023-04-28T04:20:27;101003.72;;;7.49;100.00
59757;BME280;45631;51.962;5.974;2023-04-28T04:22:57;100990.47;;;7.52;100.00
59757;BME280;45631;51.962;5.974;2023-04-28T04:25:27;100995.25;;;7.44;100.00
59757;BME280;45631;51.962;5.974;2023-04-28T04:27:55;100991.88;;;7.42;100.00
59757;BME280;45631;51.962;5.974;2023-04-28T04:30:23;100989.03;;;7.47;100.00
59757;BME280;45631;51.962;5.974;2023-04-28T04:32:51;100987.09;;;7.50;100.00
59757;BME280;45631;51.962;5.974;2023-04-28T04:35:20;100981.09;;;7.48;100.00
59757;BME280;45631;51.962;5.974;2023-04-28T04:37:49;100979.00;;;7.55;100.00
59757;BME280;45631;51.962;5.974;2023-04-28T04:40:17;100975.66;;;7.53;100.00
59757;BME280;45631;51.962;5.974;2023-04-28T04:42:48;100970.63;;;7.48;100.00
59757;BME280;45631;51.962;5.974;2023-04-28T04:45:16;100961.94;;;7.48;100.00
59757;BME280;45631;51.962;5.974;2023-04-28T04:47:44;100959.78;;;7.56;100.00
59757;BME280;45631;51.962;5.974;2023-04-28T04:50:12;100959.25;;;7.49;100.00
59757;BME280;45631;51.962;5.974;2023-04-28T04:52:42;100960.06;;;7.50;100.00
59757;BME280;45631;51.962;5.974;2023-04-28T04:55:10;100962.69;;;7.50;100.00
59757;BME280;45631;51.962;5.974;2023-04-28T04:57:38;100962.84;;;7.47;100.00
59757;BME280;45631;51.962;5.974;2023-04-28T05:00:07;100960.84;;;7.52;100.00
59757;BME280;45631;51.962;5.974;2023-04-28T05:02:35;100959.94;;;7.53;100.00
59757;BME280;45631;51.962;5.974;2023-04-28T05:05:04;100950.31;;;7.53;100.00
59757;BME280;45631;51.962;5.974;2023-04-28T05:07:47;100956.63;;;7.49;100.00
59757;BME280;45631;51.962;5.974;2023-04-28T05:10:18;100955.47;;;7.55;100.00
59757;BME280;45631;51.962;5.974;2023-04-28T05:12:46;100952.63;;;7.59;100.00
59757;BME280;45631;51.962;5.974;2023-04-28T05:15:15;100946.59;;;7.57;100.00
59757;BME280;45631;51.962;5.974;2023-04-28T05:17:45;100947.22;;;7.63;100.00
59757;BME280;45631;51.962;5.974;2023-04-28T05:20:14;100933.97;;;7.66;100.00
59757;BME280;45631;51.962;5.974;2023-04-28T05:22:42;100930.06;;;7.74;100.00
59757;BME280;45631;51.962;5.974;2023-04-28T05:25:11;100922.94;;;7.76;100.00
59757;BME280;45631;51.962;5.974;2023-04-28T05:27:39;100923.03;;;7.75;100.00
59757;BME280;45631;51.962;5.974;2023-04-28T05:30:08;100918.72;;;7.74;100.00
59757;BME280;45631;51.962;5.974;2023-04-28T05:32:37;100928.28;;;7.75;100.00
59757;BME280;45631;51.962;5.974;2023-04-28T05:35:06;100920.25;;;7.78;100.00
59757;BME280;45631;51.962;5.974;2023-04-28T05:37:34;100916.38;;;7.85;100.00
59757;BME280;45631;51.962;5.974;2023-04-28T05:40:04;100919.78;;;7.87;100.00
59757;BME280;45631;51.962;5.974;2023-04-28T05:42:34;100927.97;;;7.97;100.00
59757;BME280;45631;51.962;5.974;2023-04-28T05:45:03;100926.97;;;8.00;100.00
59757;BME280;45631;51.962;5.974;2023-04-28T05:47:31;100925.97;;;8.02;100.00
59757;BME280;45631;51.962;5.974;2023-04-28T05:49:59;100922.25;;;8.06;100.00
59757;BME280;45631;51.962;5.974;2023-04-28T05:52:29;100928.19;;;8.10;100.00
59757;BME280;45631;51.962;5.974;2023-04-28T05:54:57;100919.06;;;8.17;100.00
59757;BME280;45631;51.962;5.974;2023-04-28T05:57:25;100928.44;;;8.21;100.00
59757;BME280;45631;51.962;5.974;2023-04-28T05:59:56;100928.44;;;8.21;100.00
59757;BME280;45631;51.962;5.974;2023-04-28T06:02:24;100927.28;;;8.27;100.00
59757;BME280;45631;51.962;5.974;2023-04-28T06:04:56;100917.03;;;8.38;100.00
59757;BME280;45631;51.962;5.974;2023-04-28T06:07:24;100900.31;;;8.41;100.00
59757;BME280;45631;51.962;5.974;2023-04-28T06:09:52;100912.34;;;8.45;100.00
59757;BME280;45631;51.962;5.974;2023-04-28T06:12:21;100924.44;;;8.48;100.00
59757;BME280;45631;51.962;5.974;2023-04-28T06:14:49;100940.25;;;8.46;100.00
59757;BME280;45631;51.962;5.974;2023-04-28T06:17:20;100938.56;;;8.45;100.00
59757;BME280;45631;51.962;5.974;2023-04-28T06:19:48;100953.19;;;8.49;100.00
59757;BME280;45631;51.962;5.974;2023-04-28T06:22:19;100946.09;;;8.51;100.00
59757;BME280;45631;51.962;5.974;2023-04-28T06:24:47;100949.31;;;8.56;100.00
59757;BME280;45631;51.962;5.974;2023-04-28T06:27:16;100940.50;;;8.57;100.00
59757;BME280;45631;51.962;5.974;2023-04-28T06:29:44;100925.53;;;8.59;100.00
59757;BME280;45631;51.962;5.974;2023-04-28T06:32:12;100915.66;;;8.65;100.00
59757;BME280;45631;51.962;5.974;2023-04-28T06:34:41;100907.78;;;8.65;100.00
59757;BME280;45631;51.962;5.974;2023-04-28T06:37:09;100909.22;;;8.70;100.00
59757;BME280;45631;51.962;5.974;2023-04-28T06:39:38;100907.25;;;8.74;100.00
59757;BME280;45631;51.962;5.974;2023-04-28T06:42:06;100911.97;;;8.83;100.00
59757;BME280;45631;51.962;5.974;2023-04-28T06:44:34;100915.47;;;8.84;100.00
59757;BME280;45631;51.962;5.974;2023-04-28T06:47:02;100913.59;;;8.86;100.00
59757;BME280;45631;51.962;5.974;2023-04-28T06:49:30;100903.50;;;8.94;100.00
59757;BME280;45631;51.962;5.974;2023-04-28T06:52:02;100906.63;;;9.01;100.00
59757;BME280;45631;51.962;5.974;2023-04-28T06:54:30;100908.91;;;9.07;100.00
59757;BME280;45631;51.962;5.974;2023-04-28T06:56:59;100909.00;;;9.05;100.00
59757;BME280;45631;51.962;5.974;2023-04-28T06:59:27;100903.19;;;9.14;100.00
59757;BME280;45631;51.962;5.974;2023-04-28T07:01:55;100900.97;;;9.23;100.00
59757;BME280;45631;51.962;5.974;2023-04-28T07:04:24;100898.56;;;9.34;100.00
59757;BME280;45631;51.962;5.974;2023-04-28T07:06:55;100895.31;;;9.45;100.00
59757;BME280;45631;51.962;5.974;2023-04-28T07:09:25;100898.31;;;9.53;100.00
59757;BME280;45631;51.962;5.974;2023-04-28T07:11:55;100888.19;;;9.76;100.00
59757;BME280;45631;51.962;5.974;2023-04-28T07:14:24;100891.69;;;9.76;100.00
59757;BME280;45631;51.962;5.974;2023-04-28T07:16:52;100897.03;;;9.89;100.00
59757;BME280;45631;51.962;5.974;2023-04-28T07:19:20;100906.03;;;10.00;100.00
59757;BME280;45631;51.962;5.974;2023-04-28T07:21:51;100900.03;;;10.12;100.00
59757;BME280;45631;51.962;5.974;2023-04-28T07:24:19;100893.72;;;10.14;100.00
59757;BME280;45631;51.962;5.974;2023-04-28T07:26:50;100900.94;;;10.25;100.00
59757;BME280;45631;51.962;5.974;2023-04-28T07:29:18;100900.44;;;10.33;100.00
59757;BME280;45631;51.962;5.974;2023-04-28T07:31:46;100905.47;;;10.38;100.00
59757;BME280;45631;51.962;5.974;2023-04-28T07:34:15;100892.84;;;10.43;100.00
59757;BME280;45631;51.962;5.974;2023-04-28T07:36:44;100892.56;;;10.47;100.00
59757;BME280;45631;51.962;5.974;2023-04-28T07:39:12;100895.47;;;10.43;100.00
59757;BME280;45631;51.962;5.974;2023-04-28T07:41:41;100894.53;;;10.44;100.00
59757;BME280;45631;51.962;5.974;2023-04-28T07:44:11;100887.75;;;10.54;100.00
59757;BME280;45631;51.962;5.974;2023-04-28T07:46:39;100893.03;;;10.54;100.00
59757;BME280;45631;51.962;5.974;2023-04-28T07:49:10;100897.69;;;10.63;100.00
59757;BME280;45631;51.962;5.974;2023-04-28T07:51:38;100894.19;;;10.63;100.00
59757;BME280;45631;51.962;5.974;2023-04-28T07:54:06;100899.19;;;10.68;100.00
59757;BME280;45631;51.962;5.974;2023-04-28T07:56:34;100887.41;;;10.73;100.00
59757;BME280;45631;51.962;5.974;2023-04-28T07:59:02;100894.16;;;10.77;100.00
59757;BME280;45631;51.962;5.974;2023-04-28T08:01:32;100893.03;;;10.81;100.00
59757;BME280;45631;51.962;5.974;2023-04-28T08:04:00;100886.06;;;10.80;100.00
59757;BME280;45631;51.962;5.974;2023-04-28T08:06:28;100883.44;;;10.80;100.00
59757;BME280;45631;51.962;5.974;2023-04-28T08:08:56;100874.59;;;10.81;100.00
59757;BME280;45631;51.962;5.974;2023-04-28T08:11:25;100879.88;;;10.81;100.00
59757;BME280;45631;51.962;5.974;2023-04-28T08:13:53;100879.25;;;10.91;100.00
59757;BME280;45631;51.962;5.974;2023-04-28T08:16:27;100877.69;;;11.01;100.00
59757;BME280;45631;51.962;5.974;2023-04-28T08:18:56;100870.72;;;11.00;100.00
59757;BME280;45631;51.962;5.974;2023-04-28T08:21:25;100875.72;;;11.05;100.00
59757;BME280;45631;51.962;5.974;2023-04-28T08:23:53;100866.34;;;11.01;100.00
59757;BME280;45631;51.962;5.974;2023-04-28T08:26:24;100874.56;;;11.09;100.00
59757;BME280;45631;51.962;5.974;2023-04-28T08:28:52;100871.59;;;11.13;100.00
59757;BME280;45631;51.962;5.974;2023-04-28T08:31:20;100881.41;;;11.24;100.00
59757;BME280;45631;51.962;5.974;2023-04-28T08:33:49;100874.78;;;11.31;100.00
59757;BME280;45631;51.962;5.974;2023-04-28T08:36:18;100866.16;;;11.42;100.00
59757;BME280;45631;51.962;5.974;2023-04-28T08:38:47;100884.28;;;11.47;100.00
59757;BME280;45631;51.962;5.974;2023-04-28T08:41:15;100872.72;;;11.49;100.00
59757;BME280;45631;51.962;5.974;2023-04-28T08:43:45;100879.22;;;11.57;100.00
59757;BME280;45631;51.962;5.974;2023-04-28T08:46:13;100871.53;;;11.66;100.00
59757;BME280;45631;51.962;5.974;2023-04-28T08:48:43;100865.63;;;11.76;100.00
59757;BME280;45631;51.962;5.974;2023-04-28T08:51:14;100871.00;;;11.74;100.00
59757;BME280;45631;51.962;5.974;2023-04-28T08:53:49;100868.03;;;11.79;100.00
59757;BME280;45631;51.962;5.974;2023-04-28T08:56:20;100867.81;;;11.82;100.00
59757;BME280;45631;51.962;5.974;2023-04-28T08:58:52;100872.69;;;11.88;100.00
59757;BME280;45631;51.962;5.974;2023-04-28T09:01:21;100878.88;;;11.87;100.00
59757;BME280;45631;51.962;5.974;2023-04-28T09:03:50;100881.09;;;11.80;100.00
59757;BME280;45631;51.962;5.974;2023-04-28T09:06:23;100878.59;;;11.92;100.00
59757;BME280;45631;51.962;5.974;2023-04-28T09:08:53;100880.09;;;11.96;100.00
59757;BME280;45631;51.962;5.974;2023-04-28T09:11:21;100878.47;;;12.06;100.00
59757;BME280;45631;51.962;5.974;2023-04-28T09:13:50;100876.25;;;12.13;100.00
59757;BME280;45631;51.962;5.974;2023-04-28T09:16:18;100872.66;;;12.14;100.00
59757;BME280;45631;51.962;5.974;2023-04-28T09:18:55;100874.38;;;12.02;100.00
59757;BME280;45631;51.962;5.974;2023-04-28T09:21:23;100875.06;;;12.17;100.00
59757;BME280;45631;51.962;5.974;2023-04-28T09:23:53;100863.47;;;12.20;100.00
59757;BME280;45631;51.962;5.974;2023-04-28T09:26:24;100865.28;;;12.19;100.00
59757;BME280;45631;51.962;5.974;2023-04-28T09:29:10;100861.88;;;12.30;100.00
59757;BME280;45631;51.962;5.974;2023-04-28T09:31:38;100851.72;;;12.37;100.00
59757;BME280;45631;51.962;5.974;2023-04-28T09:34:08;100851.72;;;12.37;100.00
59757;BME280;45631;51.962;5.974;2023-04-28T09:36:43;100856.66;;;12.41;100.00
59757;BME280;45631;51.962;5.974;2023-04-28T09:39:12;100856.00;;;12.38;100.00
59757;BME280;45631;51.962;5.974;2023-04-28T09:41:42;100849.13;;;12.48;100.00
59757;BME280;45631;51.962;5.974;2023-04-28T09:44:12;100846.81;;;12.43;100.00
59757;BME280;45631;51.962;5.974;2023-04-28T09:46:41;100848.34;;;12.59;100.00
59757;BME280;45631;51.962;5.974;2023-04-28T09:49:10;100847.22;;;12.50;100.00
59757;BME280;45631;51.962;5.974;2023-04-28T09:51:39;100843.91;;;12.59;100.00
59757;BME280;45631;51.962;5.974;2023-04-28T09:54:07;100841.31;;;12.71;100.00
59757;BME280;45631;51.962;5.974;2023-04-28T09:56:36;100845.25;;;12.65;100.00
59757;BME280;45631;51.962;5.974;2023-04-28T09:59:08;100845.63;;;12.72;100.00
59757;BME280;45631;51.962;5.974;2023-04-28T10:01:37;100844.69;;;12.73;100.00
59757;BME280;45631;51.962;5.974;2023-04-28T10:04:07;100841.88;;;12.63;100.00
59757;BME280;45631;51.962;5.974;2023-04-28T10:06:39;100847.09;;;12.76;100.00
59757;BME280;45631;51.962;5.974;2023-04-28T10:09:08;100839.66;;;12.81;100.00
59757;BME280;45631;51.962;5.974;2023-04-28T10:11:42;100841.81;;;12.76;100.00
59757;BME280;45631;51.962;5.974;2023-04-28T10:14:10;100836.66;;;12.74;100.00
59757;BME280;45631;51.962;5.974;2023-04-28T10:16:39;100846.13;;;12.77;100.00
59757;BME280;45631;51.962;5.974;2023-04-28T10:19:08;100833.09;;;12.87;100.00
59757;BME280;45631;51.962;5.974;2023-04-28T10:21:43;100833.94;;;12.87;100.00
59757;BME280;45631;51.962;5.974;2023-04-28T10:24:18;100838.22;;;12.77;100.00
59757;BME280;45631;51.962;5.974;2023-04-28T10:27:08;100827.94;;;12.85;100.00
59757;BME280;45631;51.962;5.974;2023-04-28T10:29:37;100830.13;;;12.91;100.00
59757;BME280;45631;51.962;5.974;2023-04-28T10:32:18;100839.25;;;12.98;100.00
59757;BME280;45631;51.962;5.974;2023-04-28T10:34:47;100834.09;;;12.97;100.00
59757;BME280;45631;51.962;5.974;2023-04-28T10:37:15;100832.53;;;13.06;100.00
59757;BME280;45631;51.962;5.974;2023-04-28T10:40:32;100834.00;;;13.10;100.00
59757;BME280;45631;51.962;5.974;2023-04-28T10:43:04;100830.84;;;13.05;100.00
59757;BME280;45631;51.962;5.974;2023-04-28T10:46:00;100835.72;;;12.87;100.00
59757;BME280;45631;51.962;5.974;2023-04-28T10:48:52;100826.31;;;13.07;100.00
59757;BME280;45631;51.962;5.974;2023-04-28T10:51:27;100832.53;;;13.06;100.00
59757;BME280;45631;51.962;5.974;2023-04-28T10:54:15;100823.31;;;13.11;100.00
59757;BME280;45631;51.962;5.974;2023-04-28T10:57:18;100830.91;;;13.16;100.00
59757;BME280;45631;51.962;5.974;2023-04-28T10:59:51;100835.94;;;13.19;100.00
59757;BME280;45631;51.962;5.974;2023-04-28T11:02:39;100832.31;;;13.09;100.00
59757;BME280;45631;51.962;5.974;2023-04-28T11:05:15;100822.59;;;13.09;100.00
59757;BME280;45631;51.962;5.974;2023-04-28T11:11:15;100821.88;;;13.07;100.00
59757;BME280;45631;51.962;5.974;2023-04-28T11:13:44;100820.59;;;13.24;100.00
59757;BME280;45631;51.962;5.974;2023-04-28T11:16:16;100826.13;;;13.21;100.00
59757;BME280;45631;51.962;5.974;2023-04-28T11:19:00;100813.63;;;13.23;100.00
59757;BME280;45631;51.962;5.974;2023-04-28T11:21:31;100827.19;;;13.30;100.00
59757;BME280;45631;51.962;5.974;2023-04-28T11:24:06;100821.53;;;13.34;100.00
59757;BME280;45631;51.962;5.974;2023-04-28T11:26:36;100823.28;;;13.35;100.00
59757;BME280;45631;51.962;5.974;2023-04-28T11:29:05;100820.88;;;13.44;100.00
59757;BME280;45631;51.962;5.974;2023-04-28T11:31:34;100817.16;;;13.46;100.00
59757;BME280;45631;51.962;5.974;2023-04-28T11:34:04;100822.56;;;13.45;100.00
59757;BME280;45631;51.962;5.974;2023-04-28T11:36:34;100829.78;;;13.54;100.00
59757;BME280;45631;51.962;5.974;2023-04-28T11:39:03;100822.78;;;13.64;100.00
59757;BME280;45631;51.962;5.974;2023-04-28T11:41:33;100821.34;;;13.60;100.00
59757;BME280;45631;51.962;5.974;2023-04-28T11:44:09;100819.31;;;13.64;100.00
59757;BME280;45631;51.962;5.974;2023-04-28T11:46:45;100826.44;;;13.63;100.00
59757;BME280;45631;51.962;5.974;2023-04-28T11:49:17;100827.88;;;13.67;100.00
59757;BME280;45631;51.962;5.974;2023-04-28T11:51:46;100827.88;;;13.67;100.00
59757;BME280;45631;51.962;5.974;2023-04-28T11:54:20;100827.63;;;13.71;100.00
59757;BME280;45631;51.962;5.974;2023-04-28T11:56:48;100823.28;;;13.69;100.00
59757;BME280;45631;51.962;5.974;2023-04-28T11:59:17;100828.34;;;13.84;100.00
59757;BME280;45631;51.962;5.974;2023-04-28T12:01:50;100830.25;;;13.82;100.00
59757;BME280;45631;51.962;5.974;2023-04-28T12:04:29;100828.19;;;13.97;100.00
59757;BME280;45631;51.962;5.974;2023-04-28T12:07:03;100834.31;;;14.09;100.00
59757;BME280;45631;51.962;5.974;2023-04-28T12:09:32;100822.03;;;14.08;100.00
59757;BME280;45631;51.962;5.974;2023-04-28T12:12:05;100820.44;;;14.16;100.00
59757;BME280;45631;51.962;5.974;2023-04-28T12:14:54;100827.06;;;14.22;100.00
59757;BME280;45631;51.962;5.974;2023-04-28T12:17:28;100826.34;;;14.20;100.00
59757;BME280;45631;51.962;5.974;2023-04-28T12:19:58;100824.44;;;14.11;100.00
59757;BME280;45631;51.962;5.974;2023-04-28T12:22:27;100829.25;;;14.06;100.00
59757;BME280;45631;51.962;5.974;2023-04-28T12:25:03;100833.66;;;14.16;100.00
59757;BME280;45631;51.962;5.974;2023-04-28T12:27:34;100823.69;;;14.20;100.00
59757;BME280;45631;51.962;5.974;2023-04-28T12:30:23;100829.34;;;14.27;100.00
59757;BME280;45631;51.962;5.974;2023-04-28T12:32:53;100830.16;;;14.27;100.00
59757;BME280;45631;51.962;5.974;2023-04-28T12:35:22;100835.44;;;14.27;100.00
59757;BME280;45631;51.962;5.974;2023-04-28T12:37:50;100828.59;;;14.36;100.00
59757;BME280;45631;51.962;5.974;2023-04-28T12:40:18;100826.56;;;14.28;100.00
59757;BME280;45631;51.962;5.974;2023-04-28T12:42:46;100830.81;;;14.19;100.00
59757;BME280;45631;51.962;5.974;2023-04-28T12:45:15;100827.41;;;14.17;100.00
59757;BME280;45631;51.962;5.974;2023-04-28T12:47:44;100831.28;;;14.13;100.00
59757;BME280;45631;51.962;5.974;2023-04-28T12:50:14;100841.72;;;14.15;100.00
59757;BME280;45631;51.962;5.974;2023-04-28T12:52:42;100837.16;;;14.17;100.00
59757;BME280;45631;51.962;5.974;2023-04-28T12:55:10;100829.50;;;14.14;100.00
59757;BME280;45631;51.962;5.974;2023-04-28T12:57:38;100829.50;;;14.14;100.00
59757;BME280;45631;51.962;5.974;2023-04-28T13:00:08;100836.56;;;14.13;100.00
59757;BME280;45631;51.962;5.974;2023-04-28T13:02:36;100833.22;;;14.11;100.00
59757;BME280;45631;51.962;5.974;2023-04-28T13:05:05;100840.56;;;14.08;100.00